sensor_id;sensor_type;location;lat;lon;timestamp;temperature;humidity
18717;DHT22;9487;50.892;6.906;2022-09-20T00:02:23;12.80;99.90
18717;DHT22;9487;50.892;6.906;2022-09-20T00:04:50;12.80;99.90
18717;DHT22;9487;50.892;6.906;2022-09-20T00:07:17;12.80;99.90
18717;DHT22;9487;50.892;6.906;2022-09-20T00:09:44;12.80;99.90
18717;DHT22;9487;50.892;6.906;2022-09-20T00:12:10;12.70;99.90
18717;DHT22;9487;50.892;6.906;2022-09-20T00:14:37;12.70;99.90
18717;DHT22;9487;50.892;6.906;2022-09-20T00:17:04;12.70;99.90
18717;DHT22;9487;50.892;6.906;2022-09-20T00:19:32;12.60;99.90
18717;DHT22;9487;50.892;6.906;2022-09-20T00:21:59;12.60;99.90
18717;DHT22;9487;50.892;6.906;2022-09-20T00:24:26;12.60;99.90
18717;DHT22;9487;50.892;6.906;2022-09-20T00:26:53;12.60;99.90
18717;DHT22;9487;50.892;6.906;2022-09-20T00:29:20;12.50;99.90
18717;DHT22;9487;50.892;6.906;2022-09-20T00:31:47;12.50;99.90
18717;DHT22;9487;50.892;6.906;2022-09-20T00:34:14;12.40;99.90
18717;DHT22;9487;50.892;6.906;2022-09-20T00:37:00;12.50;99.90
18717;DHT22;9487;50.892;6.906;2022-09-20T00:39:26;12.50;99.90
18717;DHT22;9487;50.892;6.906;2022-09-20T00:41:53;12.60;99.90
18717;DHT22;9487;50.892;6.906;2022-09-20T00:44:46;12.50;99.90
18717;DHT22;9487;50.892;6.906;2022-09-20T00:47:21;12.30;99.90
18717;DHT22;9487;50.892;6.906;2022-09-20T00:49:52;12.40;99.90
18717;DHT22;9487;50.892;6.906;2022-09-20T00:52:22;12.50;99.90
18717;DHT22;9487;50.892;6.906;2022-09-20T00:54:49;12.60;99.90
18717;DHT22;9487;50.892;6.906;2022-09-20T00:57:16;12.60;99.90
18717;DHT22;9487;50.892;6.906;2022-09-20T00:59:45;12.60;99.90
18717;DHT22;9487;50.892;6.906;2022-09-20T01:02:15;12.60;99.90
18717;DHT22;9487;50.892;6.906;2022-09-20T01:04:44;12.50;99.90
18717;DHT22;9487;50.892;6.906;2022-09-20T01:07:15;12.40;99.90
18717;DHT22;9487;50.892;6.906;2022-09-20T01:09:43;12.20;99.90
18717;DHT22;9487;50.892;6.906;2022-09-20T01:12:14;12.20;99.90
18717;DHT22;9487;50.892;6.906;2022-09-20T01:14:44;12.10;99.90
18717;DHT22;9487;50.892;6.906;2022-09-20T01:17:13;12.10;99.90
18717;DHT22;9487;50.892;6.906;2022-09-20T01:19:47;12.10;99.90
18717;DHT22;9487;50.892;6.906;2022-09-20T01:22:23;12.00;99.90
18717;DHT22;9487;50.892;6.906;2022-09-20T01:24:56;12.00;99.90
18717;DHT22;9487;50.892;6.906;2022-09-20T01:27:39;12.00;99.90
18717;DHT22;9487;50.892;6.906;2022-09-20T01:30:08;12.00;99.90
18717;DHT22;9487;50.892;6.906;2022-09-20T01:32:45;12.10;99.90
18717;DHT22;9487;50.892;6.906;2022-09-20T01:35:17;12.10;99.90
18717;DHT22;9487;50.892;6.906;2022-09-20T01:37:58;12.10;99.90
18717;DHT22;9487;50.892;6.906;2022-09-20T01:40:31;12.10;99.90
18717;DHT22;9487;50.892;6.906;2022-09-20T01:43:07;12.10;99.90
18717;DHT22;9487;50.892;6.906;2022-09-20T01:45:39;12.10;99.90
18717;DHT22;9487;50.892;6.906;2022-09-20T01:48:13;12.00;99.90
18717;DHT22;9487;50.892;6.906;2022-09-20T01:51:01;12.10;99.90
18717;DHT22;9487;50.892;6.906;2022-09-20T01:53:48;12.00;99.90
18717;DHT22;9487;50.892;6.906;2022-09-20T01:56:49;12.10;99.90
18717;DHT22;9487;50.892;6.906;2022-09-20T02:00:10;12.10;99.90
18717;DHT22;9487;50.892;6.906;2022-09-20T02:03:02;12.10;99.90
18717;DHT22;9487;50.892;6.906;2022-09-20T02:06:03;12.10;99.90
18717;DHT22;9487;50.892;6.906;2022-09-20T02:11:52;12.10;99.90
18717;DHT22;9487;50.892;6.906;2022-09-20T02:14:36;12.00;99.90
18717;DHT22;9487;50.892;6.906;2022-09-20T02:17:12;12.10;99.90
18717;DHT22;9487;50.892;6.906;2022-09-20T02:20:05;12.20;99.90
18717;DHT22;9487;50.892;6.906;2022-09-20T02:22:52;12.10;99.90
18717;DHT22;9487;50.892;6.906;2022-09-20T02:25:43;12.00;99.90
18717;DHT22;9487;50.892;6.906;2022-09-20T02:28:20;12.00;99.90
18717;DHT22;9487;50.892;6.906;2022-09-20T02:30:54;12.10;99.90
18717;DHT22;9487;50.892;6.906;2022-09-20T02:33:50;12.10;99.90
18717;DHT22;9487;50.892;6.906;2022-09-20T02:36:29;12.20;99.90
18717;DHT22;9487;50.892;6.906;2022-09-20T02:39:07;12.30;99.90
18717;DHT22;9487;50.892;6.906;2022-09-20T02:41:50;12.40;99.90
18717;DHT22;9487;50.892;6.906;2022-09-20T02:44:27;12.30;99.90
18717;DHT22;9487;50.892;6.906;2022-09-20T02:47:01;12.40;99.90
18717;DHT22;9487;50.892;6.906;2022-09-20T02:49:41;12.50;99.90
18717;DHT22;9487;50.892;6.906;2022-09-20T02:52:15;12.50;99.90
18717;DHT22;9487;50.892;6.906;2022-09-20T02:54:52;12.40;99.90
18717;DHT22;9487;50.892;6.906;2022-09-20T02:57:28;12.30;99.90
18717;DHT22;9487;50.892;6.906;2022-09-20T03:00:01;12.10;99.90
18717;DHT22;9487;50.892;6.906;2022-09-20T03:02:37;12.10;99.90
18717;DHT22;9487;50.892;6.906;2022-09-20T03:05:17;12.00;99.90
18717;DHT22;9487;50.892;6.906;2022-09-20T03:10:40;11.90;99.90
18717;DHT22;9487;50.892;6.906;2022-09-20T03:13:16;11.90;99.90
18717;DHT22;9487;50.892;6.906;2022-09-20T03:15:54;11.90;99.90
18717;DHT22;9487;50.892;6.906;2022-09-20T03:18:33;11.90;99.90
18717;DHT22;9487;50.892;6.906;2022-09-20T03:21:20;11.90;99.90
18717;DHT22;9487;50.892;6.906;2022-09-20T03:23:55;11.80;99.90
18717;DHT22;9487;50.892;6.906;2022-09-20T03:26:34;11.80;99.90
18717;DHT22;9487;50.892;6.906;2022-09-20T03:29:10;11.70;99.90
18717;DHT22;9487;50.892;6.906;2022-09-20T03:31:55;11.70;99.90
18717;DHT22;9487;50.892;6.906;2022-09-20T03:34:37;11.70;99.90
18717;DHT22;9487;50.892;6.906;2022-09-20T03:37:27;11.70;99.90
18717;DHT22;9487;50.892;6.906;2022-09-20T03:43:03;11.70;99.90
18717;DHT22;9487;50.892;6.906;2022-09-20T03:45:44;11.70;99.90
18717;DHT22;9487;50.892;6.906;2022-09-20T03:48:40;11.80;99.90
18717;DHT22;9487;50.892;6.906;2022-09-20T03:51:21;11.80;99.90
18717;DHT22;9487;50.892;6.906;2022-09-20T03:54:08;11.90;99.90
18717;DHT22;9487;50.892;6.906;2022-09-20T03:56:58;11.80;99.90
18717;DHT22;9487;50.892;6.906;2022-09-20T03:59:42;11.80;99.90
18717;DHT22;9487;50.892;6.906;2022-09-20T04:02:39;11.80;99.90
18717;DHT22;9487;50.892;6.906;2022-09-20T04:05:11;11.80;99.90
18717;DHT22;9487;50.892;6.906;2022-09-20T04:07:50;11.80;99.90
18717;DHT22;9487;50.892;6.906;2022-09-20T04:10:32;11.80;99.90
18717;DHT22;9487;50.892;6.906;2022-09-20T04:13:17;11.80;99.90
18717;DHT22;9487;50.892;6.906;2022-09-20T04:15:56;11.80;99.90
18717;DHT22;9487;50.892;6.906;2022-09-20T04:18:32;11.80;99.90
18717;DHT22;9487;50.892;6.906;2022-09-20T04:21:05;11.80;99.90
18717;DHT22;9487;50.892;6.906;2022-09-20T04:23:40;11.80;99.90
18717;DHT22;9487;50.892;6.906;2022-09-20T04:26:10;11.70;99.90
18717;DHT22;9487;50.892;6.906;2022-09-20T04:28:42;11.70;99.90
18717;DHT22;9487;50.892;6.906;2022-09-20T04:31:19;11.70;99.90
18717;DHT22;9487;50.892;6.906;2022-09-20T04:33:50;11.70;99.90
18717;DHT22;9487;50.892;6.906;2022-09-20T04:36:45;11.80;99.90
18717;DHT22;9487;50.892;6.906;2022-09-20T04:39:25;11.70;99.90
18717;DHT22;9487;50.892;6.906;2022-09-20T04:42:39;11.70;99.90
18717;DHT22;9487;50.892;6.906;2022-09-20T04:51:27;11.70;99.90
18717;DHT22;9487;50.892;6.906;2022-09-20T04:57:26;11.70;99.90
18717;DHT22;9487;50.892;6.906;2022-09-20T05:00:04;11.70;99.90
18717;DHT22;9487;50.892;6.906;2022-09-20T05:08:43;11.70;99.90
18717;DHT22;9487;50.892;6.906;2022-09-20T05:14:21;11.80;99.90
18717;DHT22;9487;50.892;6.906;2022-09-20T05:17:03;11.90;99.90
18717;DHT22;9487;50.892;6.906;2022-09-20T05:19:39;11.90;99.90
18717;DHT22;9487;50.892;6.906;2022-09-20T05:25:41;11.80;99.90
18717;DHT22;9487;50.892;6.906;2022-09-20T05:28:19;11.90;99.90
18717;DHT22;9487;50.892;6.906;2022-09-20T05:30:51;11.90;99.90
18717;DHT22;9487;50.892;6.906;2022-09-20T05:33:24;11.80;99.90
18717;DHT22;9487;50.892;6.906;2022-09-20T05:36:03;11.70;99.90
18717;DHT22;9487;50.892;6.906;2022-09-20T05:38:38;11.70;99.90
18717;DHT22;9487;50.892;6.906;2022-09-20T05:41:12;11.70;99.90
18717;DHT22;9487;50.892;6.906;2022-09-20T05:43:51;11.70;99.90
18717;DHT22;9487;50.892;6.906;2022-09-20T05:46:33;11.80;99.90
18717;DHT22;9487;50.892;6.906;2022-09-20T05:49:10;11.80;99.90
18717;DHT22;9487;50.892;6.906;2022-09-20T05:51:59;11.90;99.90
18717;DHT22;9487;50.892;6.906;2022-09-20T05:55:03;11.80;99.90
18717;DHT22;9487;50.892;6.906;2022-09-20T05:57:43;11.80;99.90
18717;DHT22;9487;50.892;6.906;2022-09-20T06:00:17;11.90;99.90
18717;DHT22;9487;50.892;6.906;2022-09-20T06:02:53;11.90;99.90
18717;DHT22;9487;50.892;6.906;2022-09-20T06:05:31;11.90;99.90
18717;DHT22;9487;50.892;6.906;2022-09-20T06:08:12;11.90;99.90
18717;DHT22;9487;50.892;6.906;2022-09-20T06:11:07;11.90;99.90
18717;DHT22;9487;50.892;6.906;2022-09-20T06:14:01;12.00;99.90
18717;DHT22;9487;50.892;6.906;2022-09-20T06:16:39;12.00;99.90
18717;DHT22;9487;50.892;6.906;2022-09-20T06:19:17;12.00;99.90
18717;DHT22;9487;50.892;6.906;2022-09-20T06:21:50;12.30;99.90
18717;DHT22;9487;50.892;6.906;2022-09-20T06:24:25;12.40;99.90
18717;DHT22;9487;50.892;6.906;2022-09-20T06:26:56;12.50;99.90
18717;DHT22;9487;50.892;6.906;2022-09-20T06:29:28;12.50;99.90
18717;DHT22;9487;50.892;6.906;2022-09-20T06:31:56;12.60;99.90
18717;DHT22;9487;50.892;6.906;2022-09-20T06:34:24;12.50;99.90
18717;DHT22;9487;50.892;6.906;2022-09-20T06:36:59;12.40;99.90
18717;DHT22;9487;50.892;6.906;2022-09-20T06:39:53;12.60;99.90
18717;DHT22;9487;50.892;6.906;2022-09-20T06:42:40;12.70;99.90
18717;DHT22;9487;50.892;6.906;2022-09-20T06:45:09;12.30;99.90
18717;DHT22;9487;50.892;6.906;2022-09-20T06:47:35;12.20;99.90
18717;DHT22;9487;50.892;6.906;2022-09-20T06:50:05;12.10;99.90
18717;DHT22;9487;50.892;6.906;2022-09-20T06:52:32;12.10;99.90
18717;DHT22;9487;50.892;6.906;2022-09-20T06:55:00;12.30;99.90
18717;DHT22;9487;50.892;6.906;2022-09-20T06:57:33;12.30;99.90
18717;DHT22;9487;50.892;6.906;2022-09-20T07:00:03;12.40;99.90
18717;DHT22;9487;50.892;6.906;2022-09-20T07:02:30;12.70;99.90
18717;DHT22;9487;50.892;6.906;2022-09-20T07:04:57;12.70;99.90
18717;DHT22;9487;50.892;6.906;2022-09-20T07:07:25;12.80;99.90
18717;DHT22;9487;50.892;6.906;2022-09-20T07:09:52;12.80;99.90
18717;DHT22;9487;50.892;6.906;2022-09-20T07:12:19;13.00;99.90
18717;DHT22;9487;50.892;6.906;2022-09-20T07:14:46;13.00;99.90
18717;DHT22;9487;50.892;6.906;2022-09-20T07:17:15;13.00;99.90
18717;DHT22;9487;50.892;6.906;2022-09-20T07:19:41;13.30;99.90
18717;DHT22;9487;50.892;6.906;2022-09-20T07:22:08;13.60;99.90
18717;DHT22;9487;50.892;6.906;2022-09-20T07:24:36;13.80;99.90
18717;DHT22;9487;50.892;6.906;2022-09-20T07:27:05;13.70;99.90
18717;DHT22;9487;50.892;6.906;2022-09-20T07:29:31;13.90;99.90
18717;DHT22;9487;50.892;6.906;2022-09-20T07:31:59;13.80;99.90
18717;DHT22;9487;50.892;6.906;2022-09-20T07:34:26;13.80;99.90
18717;DHT22;9487;50.892;6.906;2022-09-20T07:36:54;13.70;99.90
18717;DHT22;9487;50.892;6.906;2022-09-20T07:39:24;13.40;99.90
18717;DHT22;9487;50.892;6.906;2022-09-20T07:41:52;13.40;99.90
18717;DHT22;9487;50.892;6.906;2022-09-20T07:44:20;13.60;99.90
18717;DHT22;9487;50.892;6.906;2022-09-20T07:46:49;13.60;99.90
18717;DHT22;9487;50.892;6.906;2022-09-20T07:49:16;13.60;99.90
18717;DHT22;9487;50.892;6.906;2022-09-20T07:51:44;13.80;99.90
18717;DHT22;9487;50.892;6.906;2022-09-20T07:54:10;14.10;99.90
18717;DHT22;9487;50.892;6.906;2022-09-20T07:56:37;14.30;99.90
18717;DHT22;9487;50.892;6.906;2022-09-20T07:59:06;14.20;99.90
18717;DHT22;9487;50.892;6.906;2022-09-20T08:01:34;14.60;99.90
18717;DHT22;9487;50.892;6.906;2022-09-20T08:04:02;14.80;99.90
18717;DHT22;9487;50.892;6.906;2022-09-20T08:06:29;14.80;99.90
18717;DHT22;9487;50.892;6.906;2022-09-20T08:08:56;14.70;99.90
18717;DHT22;9487;50.892;6.906;2022-09-20T08:11:24;14.40;99.90
18717;DHT22;9487;50.892;6.906;2022-09-20T08:13:53;14.20;99.90
18717;DHT22;9487;50.892;6.906;2022-09-20T08:16:22;13.90;99.90
18717;DHT22;9487;50.892;6.906;2022-09-20T08:18:50;13.60;99.90
18717;DHT22;9487;50.892;6.906;2022-09-20T08:21:18;13.70;99.90
18717;DHT22;9487;50.892;6.906;2022-09-20T08:23:45;13.80;99.90
18717;DHT22;9487;50.892;6.906;2022-09-20T08:26:14;13.90;99.90
18717;DHT22;9487;50.892;6.906;2022-09-20T08:28:43;13.90;99.90
18717;DHT22;9487;50.892;6.906;2022-09-20T08:31:12;14.00;99.90
18717;DHT22;9487;50.892;6.906;2022-09-20T08:33:41;14.30;99.90
18717;DHT22;9487;50.892;6.906;2022-09-20T08:36:11;14.50;99.90
18717;DHT22;9487;50.892;6.906;2022-09-20T08:38:39;14.40;99.90
18717;DHT22;9487;50.892;6.906;2022-09-20T08:41:09;14.70;99.90
18717;DHT22;9487;50.892;6.906;2022-09-20T08:43:40;14.40;99.90
18717;DHT22;9487;50.892;6.906;2022-09-20T08:46:13;14.20;99.90
18717;DHT22;9487;50.892;6.906;2022-09-20T08:48:42;14.40;99.90
18717;DHT22;9487;50.892;6.906;2022-09-20T08:51:12;14.40;99.90
18717;DHT22;9487;50.892;6.906;2022-09-20T08:53:45;14.60;99.90
18717;DHT22;9487;50.892;6.906;2022-09-20T08:56:12;14.70;99.90
18717;DHT22;9487;50.892;6.906;2022-09-20T08:58:39;14.40;99.90
18717;DHT22;9487;50.892;6.906;2022-09-20T09:01:09;14.40;99.90
18717;DHT22;9487;50.892;6.906;2022-09-20T09:03:36;14.50;99.90
18717;DHT22;9487;50.892;6.906;2022-09-20T09:06:10;14.60;99.90
18717;DHT22;9487;50.892;6.906;2022-09-20T09:08:39;14.50;99.90
18717;DHT22;9487;50.892;6.906;2022-09-20T09:11:13;14.60;99.90
18717;DHT22;9487;50.892;6.906;2022-09-20T09:13:47;14.70;99.90
18717;DHT22;9487;50.892;6.906;2022-09-20T09:16:17;14.90;99.90
18717;DHT22;9487;50.892;6.906;2022-09-20T09:18:46;14.90;99.90
18717;DHT22;9487;50.892;6.906;2022-09-20T09:21:19;15.00;99.90
18717;DHT22;9487;50.892;6.906;2022-09-20T09:23:50;14.90;99.90
18717;DHT22;9487;50.892;6.906;2022-09-20T09:26:20;14.80;99.90
18717;DHT22;9487;50.892;6.906;2022-09-20T09:29:14;14.70;99.90
18717;DHT22;9487;50.892;6.906;2022-09-20T09:31:41;14.80;99.90
18717;DHT22;9487;50.892;6.906;2022-09-20T09:34:25;15.00;99.90
18717;DHT22;9487;50.892;6.906;2022-09-20T09:36:55;15.00;99.90
18717;DHT22;9487;50.892;6.906;2022-09-20T09:39:24;14.90;99.90
18717;DHT22;9487;50.892;6.906;2022-09-20T09:41:51;15.00;99.90
18717;DHT22;9487;50.892;6.906;2022-09-20T09:44:21;15.10;99.90
18717;DHT22;9487;50.892;6.906;2022-09-20T09:46:48;15.20;99.90
18717;DHT22;9487;50.892;6.906;2022-09-20T09:49:17;15.20;99.90
18717;DHT22;9487;50.892;6.906;2022-09-20T09:52:02;15.20;99.90
18717;DHT22;9487;50.892;6.906;2022-09-20T09:54:32;15.30;99.90
18717;DHT22;9487;50.892;6.906;2022-09-20T09:57:13;15.60;99.90
18717;DHT22;9487;50.892;6.906;2022-09-20T10:00:01;15.90;99.90
18717;DHT22;9487;50.892;6.906;2022-09-20T10:05:44;15.70;99.90
18717;DHT22;9487;50.892;6.906;2022-09-20T10:08:25;15.30;99.90
18717;DHT22;9487;50.892;6.906;2022-09-20T10:11:03;15.10;99.90
18717;DHT22;9487;50.892;6.906;2022-09-20T10:13:39;14.90;99.90
18717;DHT22;9487;50.892;6.906;2022-09-20T10:16:16;14.90;99.90
18717;DHT22;9487;50.892;6.906;2022-09-20T10:18:50;14.70;99.90
18717;DHT22;9487;50.892;6.906;2022-09-20T10:21:32;14.80;99.90
18717;DHT22;9487;50.892;6.906;2022-09-20T10:24:14;14.80;99.90
18717;DHT22;9487;50.892;6.906;2022-09-20T10:26:55;14.90;99.90
18717;DHT22;9487;50.892;6.906;2022-09-20T10:29:36;14.80;99.90
18717;DHT22;9487;50.892;6.906;2022-09-20T10:32:17;14.80;99.90
18717;DHT22;9487;50.892;6.906;2022-09-20T10:35:22;14.70;99.90
18717;DHT22;9487;50.892;6.906;2022-09-20T10:40:52;14.90;99.90
18717;DHT22;9487;50.892;6.906;2022-09-20T10:43:51;15.00;99.90
18717;DHT22;9487;50.892;6.906;2022-09-20T10:46:25;15.20;99.90
18717;DHT22;9487;50.892;6.906;2022-09-20T10:49:02;15.20;99.90
18717;DHT22;9487;50.892;6.906;2022-09-20T10:51:40;15.20;99.90
18717;DHT22;9487;50.892;6.906;2022-09-20T10:54:25;15.50;99.90
18717;DHT22;9487;50.892;6.906;2022-09-20T10:57:07;15.50;99.90
18717;DHT22;9487;50.892;6.906;2022-09-20T10:59:42;15.30;99.90
18717;DHT22;9487;50.892;6.906;2022-09-20T11:02:24;15.30;99.90
18717;DHT22;9487;50.892;6.906;2022-09-20T11:07:55;15.40;99.90
18717;DHT22;9487;50.892;6.906;2022-09-20T11:10:27;15.20;99.90
18717;DHT22;9487;50.892;6.906;2022-09-20T11:12:59;15.30;99.90
18717;DHT22;9487;50.892;6.906;2022-09-20T11:15:31;15.20;99.90
18717;DHT22;9487;50.892;6.906;2022-09-20T11:18:04;15.20;99.90
18717;DHT22;9487;50.892;6.906;2022-09-20T11:20:36;15.10;99.90
18717;DHT22;9487;50.892;6.906;2022-09-20T11:23:10;15.00;99.90
18717;DHT22;9487;50.892;6.906;2022-09-20T11:25:42;15.00;99.90
18717;DHT22;9487;50.892;6.906;2022-09-20T11:28:15;14.90;99.90
18717;DHT22;9487;50.892;6.906;2022-09-20T11:30:55;14.90;99.90
18717;DHT22;9487;50.892;6.906;2022-09-20T11:33:27;14.80;99.90
18717;DHT22;9487;50.892;6.906;2022-09-20T11:35:57;14.70;99.90
18717;DHT22;9487;50.892;6.906;2022-09-20T11:38:27;14.80;99.90
18717;DHT22;9487;50.892;6.906;2022-09-20T11:41:01;14.80;99.90
18717;DHT22;9487;50.892;6.906;2022-09-20T11:43:32;14.80;99.90
18717;DHT22;9487;50.892;6.906;2022-09-20T11:46:03;14.70;99.90
18717;DHT22;9487;50.892;6.906;2022-09-20T11:48:33;14.60;99.90
18717;DHT22;9487;50.892;6.906;2022-09-20T11:51:28;14.10;99.90
18717;DHT22;9487;50.892;6.906;2022-09-20T11:57:00;13.80;99.90
18717;DHT22;9487;50.892;6.906;2022-09-20T11:59:33;13.80;99.90
18717;DHT22;9487;50.892;6.906;2022-09-20T12:02:04;13.70;99.90
18717;DHT22;9487;50.892;6.906;2022-09-20T12:04:38;13.70;99.90
18717;DHT22;9487;50.892;6.906;2022-09-20T12:07:17;13.80;99.90
18717;DHT22;9487;50.892;6.906;2022-09-20T12:09:51;13.90;99.90
18717;DHT22;9487;50.892;6.906;2022-09-20T12:12:29;14.20;99.90
18717;DHT22;9487;50.892;6.906;2022-09-20T12:14:59;14.50;99.90
18717;DHT22;9487;50.892;6.906;2022-09-20T12:20:58;14.50;99.90
18717;DHT22;9487;50.892;6.906;2022-09-20T12:23:46;14.50;99.90
18717;DHT22;9487;50.892;6.906;2022-09-20T12:26:35;14.40;99.90
18717;DHT22;9487;50.892;6.906;2022-09-20T12:32:39;14.50;99.90
18717;DHT22;9487;50.892;6.906;2022-09-20T12:38:38;14.40;99.90
18717;DHT22;9487;50.892;6.906;2022-09-20T12:41:13;14.40;99.90
18717;DHT22;9487;50.892;6.906;2022-09-20T12:43:54;14.50;99.90
18717;DHT22;9487;50.892;6.906;2022-09-20T12:46:35;14.80;99.90
18717;DHT22;9487;50.892;6.906;2022-09-20T12:49:29;15.20;99.90
18717;DHT22;9487;50.892;6.906;2022-09-20T12:52:23;15.50;99.90
18717;DHT22;9487;50.892;6.906;2022-09-20T12:55:09;15.70;99.90
18717;DHT22;9487;50.892;6.906;2022-09-20T12:57:37;15.70;99.90
18717;DHT22;9487;50.892;6.906;2022-09-20T13:00:06;15.50;99.90
18717;DHT22;9487;50.892;6.906;2022-09-20T13:02:58;15.40;99.90
18717;DHT22;9487;50.892;6.906;2022-09-20T13:05:33;15.40;99.90
18717;DHT22;9487;50.892;6.906;2022-09-20T13:08:11;15.60;99.90
18717;DHT22;9487;50.892;6.906;2022-09-20T13:10:40;15.60;99.90
18717;DHT22;9487;50.892;6.906;2022-09-20T13:13:32;15.50;99.90
18717;DHT22;9487;50.892;6.906;2022-09-20T13:16:02;15.30;99.90
18717;DHT22;9487;50.892;6.906;2022-09-20T13:18:32;15.20;99.90
18717;DHT22;9487;50.892;6.906;2022-09-20T13:21:02;15.20;99.90
18717;DHT22;9487;50.892;6.906;2022-09-20T13:23:43;15.20;99.90
18717;DHT22;9487;50.892;6.906;2022-09-20T13:26:11;15.10;99.90
18717;DHT22;9487;50.892;6.906;2022-09-20T13:28:43;15.00;99.90
18717;DHT22;9487;50.892;6.906;2022-09-20T13:31:22;15.00;99.90
18717;DHT22;9487;50.892;6.906;2022-09-20T13:33:50;15.00;99.90
18717;DHT22;9487;50.892;6.906;2022-09-20T13:36:24;14.90;99.90
18717;DHT22;9487;50.892;6.906;2022-09-20T13:38:54;14.90;99.90
18717;DHT22;9487;50.892;6.906;2022-09-20T13:41:21;15.10;99.90
18717;DHT22;9487;50.892;6.906;2022-09-20T13:43:49;14.90;99.90
18717;DHT22;9487;50.892;6.906;2022-09-20T13:46:22;14.80;99.90
18717;DHT22;9487;50.892;6.906;2022-09-20T13:48:53;14.80;99.90
18717;DHT22;9487;50.892;6.906;2022-09-20T13:51:26;14.80;99.90
18717;DHT22;9487;50.892;6.906;2022-09-20T13:54:17;14.90;99.90
18717;DHT22;9487;50.892;6.906;2022-09-20T13:56:46;14.80;99.90
18717;DHT22;9487;50.892;6.906;2022-09-20T13:59:15;14.80;99.90
18717;DHT22;9487;50.892;6.906;2022-09-20T14:01:48;14.90;99.90
18717;DHT22;9487;50.892;6.906;2022-09-20T14:04:16;15.00;99.90
18717;DHT22;9487;50.892;6.906;2022-09-20T14:06:45;14.90;99.90
18717;DHT22;9487;50.892;6.906;2022-09-20T14:09:19;14.70;99.90
18717;DHT22;9487;50.892;6.906;2022-09-20T14:11:47;14.80;99.90
18717;DHT22;9487;50.892;6.906;2022-09-20T14:14:15;14.70;99.90
18717;DHT22;9487;50.892;6.906;2022-09-20T14:16:43;14.70;99.90
18717;DHT22;9487;50.892;6.906;2022-09-20T14:19:16;14.80;99.90
18717;DHT22;9487;50.892;6.906;2022-09-20T14:21:46;14.70;99.90
18717;DHT22;9487;50.892;6.906;2022-09-20T14:24:28;14.80;99.90
18717;DHT22;9487;50.892;6.906;2022-09-20T14:27:04;14.70;99.90
18717;DHT22;9487;50.892;6.906;2022-09-20T14:29:37;14.80;99.90
18717;DHT22;9487;50.892;6.906;2022-09-20T14:32:08;14.80;99.90
18717;DHT22;9487;50.892;6.906;2022-09-20T14:34:36;14.90;99.90
18717;DHT22;9487;50.892;6.906;2022-09-20T14:37:10;15.00;99.90
18717;DHT22;9487;50.892;6.906;2022-09-20T14:39:45;15.30;99.90
18717;DHT22;9487;50.892;6.906;2022-09-20T14:42:27;15.70;99.90
18717;DHT22;9487;50.892;6.906;2022-09-20T14:44:55;15.70;99.90
18717;DHT22;9487;50.892;6.906;2022-09-20T14:47:26;15.60;99.90
18717;DHT22;9487;50.892;6.906;2022-09-20T14:49:54;15.60;99.90
18717;DHT22;9487;50.892;6.906;2022-09-20T14:52:36;15.80;99.90
18717;DHT22;9487;50.892;6.906;2022-09-20T14:55:17;15.70;99.90
18717;DHT22;9487;50.892;6.906;2022-09-20T14:57:46;15.80;99.90
18717;DHT22;9487;50.892;6.906;2022-09-20T15:00:16;16.20;99.90
18717;DHT22;9487;50.892;6.906;2022-09-20T15:02:44;16.00;99.90
18717;DHT22;9487;50.892;6.906;2022-09-20T15:05:20;16.00;99.90
18717;DHT22;9487;50.892;6.906;2022-09-20T15:07:52;15.90;99.90
18717;DHT22;9487;50.892;6.906;2022-09-20T15:10:20;15.60;99.90
18717;DHT22;9487;50.892;6.906;2022-09-20T15:12:47;15.80;99.90
18717;DHT22;9487;50.892;6.906;2022-09-20T15:15:15;16.10;99.90
18717;DHT22;9487;50.892;6.906;2022-09-20T15:17:44;16.10;99.90
18717;DHT22;9487;50.892;6.906;2022-09-20T15:20:16;15.80;99.90
18717;DHT22;9487;50.892;6.906;2022-09-20T15:22:44;15.70;99.90
18717;DHT22;9487;50.892;6.906;2022-09-20T15:25:14;15.50;99.90
18717;DHT22;9487;50.892;6.906;2022-09-20T15:27:42;15.70;99.90
18717;DHT22;9487;50.892;6.906;2022-09-20T15:30:11;16.30;99.90
18717;DHT22;9487;50.892;6.906;2022-09-20T15:32:39;16.60;99.90
18717;DHT22;9487;50.892;6.906;2022-09-20T15:35:06;16.30;99.90
18717;DHT22;9487;50.892;6.906;2022-09-20T15:37:33;16.00;99.90
18717;DHT22;9487;50.892;6.906;2022-09-20T15:40:00;16.20;99.90
18717;DHT22;9487;50.892;6.906;2022-09-20T15:42:29;16.30;99.90
18717;DHT22;9487;50.892;6.906;2022-09-20T15:44:56;16.30;99.90
18717;DHT22;9487;50.892;6.906;2022-09-20T15:47:23;16.10;99.90
18717;DHT22;9487;50.892;6.906;2022-09-20T15:49:52;16.10;99.90
18717;DHT22;9487;50.892;6.906;2022-09-20T15:52:19;16.00;99.90
18717;DHT22;9487;50.892;6.906;2022-09-20T15:54:49;15.90;99.90
18717;DHT22;9487;50.892;6.906;2022-09-20T15:57:16;15.80;99.90
18717;DHT22;9487;50.892;6.906;2022-09-20T15:59:44;15.70;99.90
18717;DHT22;9487;50.892;6.906;2022-09-20T16:02:11;15.60;99.90
18717;DHT22;9487;50.892;6.906;2022-09-20T16:04:38;15.60;99.90
18717;DHT22;9487;50.892;6.906;2022-09-20T16:07:05;15.90;99.90
18717;DHT22;9487;50.892;6.906;2022-09-20T16:09:34;15.70;99.90
18717;DHT22;9487;50.892;6.906;2022-09-20T16:12:03;15.50;99.90
18717;DHT22;9487;50.892;6.906;2022-09-20T16:14:29;15.50;99.90
18717;DHT22;9487;50.892;6.906;2022-09-20T16:16:58;15.40;99.90
18717;DHT22;9487;50.892;6.906;2022-09-20T16:19:24;15.40;99.90
18717;DHT22;9487;50.892;6.906;2022-09-20T16:21:52;15.40;99.90
18717;DHT22;9487;50.892;6.906;2022-09-20T16:24:22;15.40;99.90
18717;DHT22;9487;50.892;6.906;2022-09-20T16:26:50;15.50;99.90
18717;DHT22;9487;50.892;6.906;2022-09-20T16:29:17;15.50;99.90
18717;DHT22;9487;50.892;6.906;2022-09-20T16:31:47;15.40;99.90
18717;DHT22;9487;50.892;6.906;2022-09-20T16:34:17;15.40;99.90
18717;DHT22;9487;50.892;6.906;2022-09-20T16:36:44;15.40;99.90
18717;DHT22;9487;50.892;6.906;2022-09-20T16:39:13;15.40;99.90
18717;DHT22;9487;50.892;6.906;2022-09-20T16:41:40;15.40;99.90
18717;DHT22;9487;50.892;6.906;2022-09-20T16:44:07;15.40;99.90
18717;DHT22;9487;50.892;6.906;2022-09-20T16:46:34;15.30;99.90
18717;DHT22;9487;50.892;6.906;2022-09-20T16:49:03;15.30;99.90
18717;DHT22;9487;50.892;6.906;2022-09-20T16:51:34;15.30;99.90
18717;DHT22;9487;50.892;6.906;2022-09-20T16:54:02;15.30;99.90
18717;DHT22;9487;50.892;6.906;2022-09-20T16:56:32;15.30;99.90
18717;DHT22;9487;50.892;6.906;2022-09-20T16:58:59;15.30;99.90
18717;DHT22;9487;50.892;6.906;2022-09-20T17:01:26;15.30;99.90
18717;DHT22;9487;50.892;6.906;2022-09-20T17:03:54;15.30;99.90
18717;DHT22;9487;50.892;6.906;2022-09-20T17:06:22;15.30;99.90
18717;DHT22;9487;50.892;6.906;2022-09-20T17:08:52;15.30;99.90
18717;DHT22;9487;50.892;6.906;2022-09-20T17:11:21;15.30;99.90
18717;DHT22;9487;50.892;6.906;2022-09-20T17:13:49;15.20;99.90
18717;DHT22;9487;50.892;6.906;2022-09-20T17:16:18;15.20;99.90
18717;DHT22;9487;50.892;6.906;2022-09-20T17:18:46;15.20;99.90
18717;DHT22;9487;50.892;6.906;2022-09-20T17:21:17;15.10;99.90
18717;DHT22;9487;50.892;6.906;2022-09-20T17:23:45;15.10;99.90